ADDS METAR Data INFO
IDs: Format: Raw Decoded Include TAF

Data at: 0844 UTC 27 Jun 2017

KABI 270752Z 13004KT 10SM CLR 21/19 A3007 RMK AO2 SLP159 T02060194
KABI 270652Z 15005KT 10SM CLR 20/20 A3009 RMK AO2 SLP166 T02000200
KABI 270552Z 14005KT 10SM CLR 21/20 A3011 RMK AO2 SLP171 T02110200 10261 20206 402940206 51014
KABI 270452Z 11003KT 10SM CLR 23/21 A3010 RMK AO2 SLP168 T02280206
KABI 270352Z 15006KT 10SM CLR 23/21 A3007 RMK AO2 SLP160 T02280211
KABI 270252Z 13006KT 10SM CLR 24/21 A3006 RMK AO2 SLP156 T02440206 53002
KABI 270152Z 13009KT 10SM CLR 25/20 A3005 RMK AO2 SLP150 T02500200
KABI 270052Z 15007KT 10SM CLR 26/21 A3005 RMK AO2 SLP151 T02560211
KABI 262352Z 20005KT 10SM CLR 26/20 A3006 RMK AO2 RAE2255 SLP154 P0000 60000 T02610200 10294 20256 58003
KABI 262252Z 23009KT 10SM -RA BKN038 26/21 A3006 RMK AO2 RAB35 SLP155 P0000 T02560206
KABI 262152Z 11006KT 10SM CLR 28/19 A3007 RMK AO2 LTG DSNT SW AND NW SLP158 T02780194
KABI 262052Z 08010KT 10SM FEW044 SCT055 29/19 A3007 RMK AO2 SLP156 T02890194 56028
KABI 261952Z COR 100/06 10SM SCT040 BKN055 29/19 A3009 RMK AO2 SLP163 T02890194
KABI 261852Z 10SM SCT030 BKN050 29/20 A3012 RMK AO2 LTG DSNT S SLP176 T02890200
KABI 261755Z 00000KT 10SM SCT030 BKN050 27/20 A3015 RMK AO2 T02670200
KABI 261752Z 14004KT 10SM SCT030 SCT050 27/20 A3015 RMK AO2 SLP186 T02720200 10278 20217 56010
KABI 261652Z VRB03KT 10SM FEW024 27/21 A3016 RMK AO2 SLP188 T02670206
KABI 261552Z 00000KT 10SM SCT019 25/21 A3017 RMK AO2 SLP193 T02500206
KABI 261452Z 19003KT 9SM BKN017 OVC060 24/21 A3018 RMK AO2 SLP197 T02390211 50003
KABI 261402Z 16004KT 8SM BKN007 BKN032 23/21 A3019 RMK AO2 T02280206
KABI 261352Z 19006KT 8SM FEW012 SCT032 BKN070 23/21 A3019 RMK AO2 SLP200 T02280206
KABI 261305Z 16007KT 7SM BKN012 BKN024 22/21 A3018 RMK AO2 T02220211
KABI 261252Z COR 15006KT 7SM COR BKN012 BKN024 22/21 A3018 RMK AO2 SLP195 T02220211
KABI 261152Z 17004KT 7SM OVC008 22/21 A3017 RMK AO2 SLP193 T02170211 10222 20206 51004
KABI 261052Z 14004KT 9SM OVC008 21/21 A3017 RMK AO2 SLP190 T02110206
KABI 261043Z 13004KT 9SM OVC009 21/21 A3016 RMK AO2 CIG 008V011 T02110206
KABI 261000Z 14003KT 9SM BKN014 21/21 A3017 RMK AO2 T02060206
KABI 260952Z 14003KT 10SM SCT014 21/21 A3017 RMK AO2 SLP192 T02060206
KABI 260852Z 12005KT 10SM CLR 21/21 A3016 RMK AO2 SLP189 T02110206 55007
KABI 260752Z 14006KT 10SM CLR 21/21 A3016 RMK AO2 SLP188 T02110206
KABI 260652Z 14007KT 10SM CLR 21/21 A3018 RMK AO2 SLP196 T02110206
KABI 260552Z 14010KT 10SM CLR 22/20 A3018 RMK AO2 SLP197 T02220200 10283 20222 402890206 51007
KABI 260452Z 12010KT 10SM CLR 23/20 A3018 RMK AO2 SLP195 T02280200
KABI 260352Z 11009KT 10SM CLR 24/19 A3017 RMK AO2 SLP193 T02390194
KABI 260252Z 08005KT 10SM CLR 24/19 A3016 RMK AO2 SLP190 T02390194 53008
KABI 260152Z 10006KT 10SM CLR 26/19 A3015 RMK AO2 SLP184 T02610189
KABI 260052Z 10009KT 10SM CLR 28/18 A3013 RMK AO2 SLP180 T02780178
KABI 252352Z 08009KT 10SM FEW041 28/17 A3013 RMK AO2 SLP180 T02780172 10289 20261 56021
KABI 252252Z 09010KT 10SM CLR 28/18 A3015 RMK AO2 SLP186 T02830178
KABI 252152Z 11009KT 10SM FEW065 28/18 A3016 RMK AO2 SLP190 T02780178
KABI 252052Z 09011KT 10SM OVC065 27/18 A3020 RMK AO2 SLP202 T02720183 58018


Page loaded:  08:44 UTC  |   01:44 AM Pacific  |   02:44 AM Mountain  |   03:44 AM Central  |   04:44 AM Eastern

 

ADVISORIES

FORECASTS

FORECASTS

OBSERVATIONS

USER TOOLS

ABOUT US